Time;durP1;ratioP1;P1;durP2;ratioP2;P2;SDS_P1;SDS_P2;PMS_P1;PMS_P2;Temp;Humidity;BMP_temperature;BMP_pressure;BME280_temperature;BME280_humidity;BME280_pressure;Samples;Min_cycle;Max_cycle;Signal;HPM_P1;HPM_P2
2021/11/03 00:01:32;;;;;;;3.17;2.47;;;5.70;99.90;5.70;99285.00;;;;4936534;28;89015;-66
2021/11/03 00:03:59;;;;;;;3.83;2.57;;;5.80;99.90;5.70;99285.00;;;;4953235;28;87583;-67
2021/11/03 00:06:24;;;;;;;2.10;1.97;;;5.90;99.90;5.80;99288.00;;;;4937713;28;87555;-67
2021/11/03 00:08:51;;;;;;;4.60;2.20;;;5.80;99.90;5.80;99273.00;;;;4937047;28;117117;-67
2021/11/03 00:11:17;;;;;;;4.40;2.97;;;5.90;99.90;5.80;99285.00;;;;4951205;28;87942;-67
2021/11/03 00:13:43;;;;;;;6.87;2.53;;;6.00;99.90;5.80;99292.00;;;;4938419;28;87440;-67
2021/11/03 00:16:10;;;;;;;2.00;1.73;;;6.00;99.90;5.80;99283.00;;;;4952631;28;88130;-66
2021/11/03 00:18:36;;;;;;;2.00;1.80;;;5.90;99.90;5.80;99287.00;;;;4938189;28;88096;-66
2021/11/03 00:21:04;;;;;;;3.13;1.90;;;5.90;99.90;5.80;99278.00;;;;4936226;28;105159;-67
2021/11/03 00:23:30;;;;;;;2.37;2.03;;;5.90;99.90;5.80;99285.00;;;;4937751;28;87932;-67
2021/11/03 00:25:56;;;;;;;3.43;2.10;;;5.90;99.90;5.80;99291.00;;;;4936588;28;110000;-67
2021/11/03 00:28:23;;;;;;;3.07;2.43;;;5.90;99.90;5.80;99289.00;;;;4937548;28;87664;-65
2021/11/03 00:30:54;;;;;;;3.87;2.13;;;5.90;99.90;5.70;99289.00;;;;4937840;28;87592;-66
2021/11/03 00:33:22;;;;;;;2.10;1.90;;;5.90;99.90;5.70;99274.00;;;;4937301;28;88679;-66
2021/11/03 00:35:48;;;;;;;2.07;1.70;;;5.90;99.90;5.80;99290.00;;;;4937883;28;88040;-66
2021/11/03 00:38:13;;;;;;;2.20;1.60;;;5.90;99.90;5.80;99278.00;;;;4937139;28;116039;-66
2021/11/03 00:40:39;;;;;;;4.07;2.30;;;5.90;99.90;5.80;99290.00;;;;4935782;28;115280;-67
2021/11/03 00:43:05;;;;;;;2.70;1.80;;;5.90;99.90;5.80;99279.00;;;;4937082;28;110494;-67
2021/11/03 00:45:32;;;;;;;4.37;2.00;;;5.90;99.90;5.90;99285.00;;;;4936348;28;110127;-66
2021/11/03 00:47:58;;;;;;;3.17;1.77;;;6.00;99.90;5.90;99293.00;;;;4936256;28;117283;-66
2021/11/03 00:50:24;;;;;;;2.47;1.93;;;6.00;99.90;5.90;99287.00;;;;4937160;28;87948;-68
2021/11/03 00:52:51;;;;;;;2.20;1.67;;;6.00;99.90;6.00;99285.00;;;;4952528;28;88128;-67
2021/11/03 00:55:17;;;;;;;3.67;2.23;;;6.10;99.90;6.00;99287.00;;;;4936901;28;87833;-67
2021/11/03 00:57:43;;;;;;;2.67;1.90;;;6.10;99.90;6.10;99280.00;;;;4937355;28;88311;-67
2021/11/03 01:00:11;;;;;;;3.40;1.87;;;5.80;99.90;6.10;99276.00;;;;4935913;28;119113;-66
2021/11/03 01:02:37;;;;;;;1.73;1.63;;;6.20;99.90;6.10;99273.00;;;;4937502;28;87085;-67
2021/11/03 01:05:05;;;;;;;2.07;1.67;;;6.20;99.90;6.10;99276.00;;;;4936981;28;87704;-67
2021/11/03 01:07:30;;;;;;;8.27;2.30;;;6.30;99.90;6.20;99265.00;;;;4936960;28;92939;-67
2021/11/03 01:09:56;;;;;;;3.57;1.97;;;6.30;99.90;6.20;99263.00;;;;4936968;28;88760;-67
2021/11/03 01:12:22;;;;;;;2.23;2.00;;;6.40;99.90;6.30;99264.00;;;;4936806;28;90458;-66
2021/11/03 01:14:48;;;;;;;3.67;1.93;;;6.40;99.90;6.30;99263.00;;;;4936346;28;108891;-67
2021/11/03 01:17:13;;;;;;;2.23;1.80;;;6.40;99.90;6.30;99259.00;;;;4936839;28;88443;-67
2021/11/03 01:19:40;;;;;;;2.10;1.90;;;6.40;99.90;6.40;99254.00;;;;4935845;28;116117;-67
2021/11/03 01:22:05;;;;;;;1.77;1.57;;;6.50;99.90;6.40;99257.00;;;;4936421;28;96423;-67
2021/11/03 01:24:31;;;;;;;2.63;1.87;;;6.50;99.90;6.40;99258.00;;;;4937078;28;87787;-67
2021/11/03 01:26:57;;;;;;;2.77;1.80;;;6.50;99.90;6.40;99260.00;;;;4936899;28;87884;-67
2021/11/03 01:29:22;;;;;;;2.40;2.10;;;6.60;99.90;6.40;99258.00;;;;4935742;28;117370;-67
2021/11/03 01:31:49;;;;;;;2.57;2.00;;;6.60;99.90;6.40;99260.00;;;;4935135;28;109548;-67
2021/11/03 01:34:16;;;;;;;2.50;2.30;;;6.50;99.90;6.50;99260.00;;;;4935584;28;88665;-67
2021/11/03 01:36:42;;;;;;;3.33;1.70;;;6.60;99.90;6.50;99263.00;;;;4949891;28;102882;-67
2021/11/03 01:39:08;;;;;;;2.10;1.83;;;6.60;99.90;6.60;99268.00;;;;4935799;28;105495;-67
2021/11/03 01:41:36;;;;;;;3.93;1.60;;;6.60;99.90;6.60;99266.00;;;;4935786;28;87697;-67
2021/11/03 01:44:07;;;;;;;3.07;2.00;;;6.70;99.90;6.60;99257.00;;;;4936743;28;95343;-67
2021/11/03 01:46:51;;;;;;;2.00;1.67;;;6.70;99.90;6.50;99254.00;;;;4936667;28;88698;-67
2021/11/03 01:49:24;;;;;;;2.37;1.97;;;6.70;99.90;6.50;99260.00;;;;4936007;28;102763;-67
2021/11/03 01:52:09;;;;;;;3.33;2.00;;;6.70;99.90;6.50;99263.00;;;;4936388;28;86984;-67
2021/11/03 01:55:04;;;;;;;3.73;2.17;;;6.70;99.90;6.60;99265.00;;;;4936518;28;94797;-68
2021/11/03 01:57:34;;;;;;;2.47;1.93;;;6.70;99.90;6.60;99257.00;;;;4929052;28;98308;-68
2021/11/03 02:00:21;;;;;;;2.40;1.80;;;6.70;99.90;6.60;99257.00;;;;4950264;28;88877;-65
2021/11/03 02:02:49;;;;;;;3.83;2.03;;;6.70;99.90;6.70;99267.00;;;;4951338;28;88075;-67
2021/11/03 02:05:17;;;;;;;2.10;1.50;;;6.80;99.90;6.70;99267.00;;;;4950376;28;98662;-66
2021/11/03 02:07:44;;;;;;;2.67;1.73;;;6.80;99.90;6.70;99271.00;;;;4935239;28;106021;-66
2021/11/03 02:10:12;;;;;;;8.77;1.47;;;6.80;99.90;6.70;99280.00;;;;4934861;28;114811;-67
2021/11/03 02:12:38;;;;;;;2.00;1.73;;;6.80;99.90;6.70;99289.00;;;;4950287;28;87895;-67
2021/11/03 02:15:06;;;;;;;2.77;1.90;;;6.90;99.90;6.70;99280.00;;;;4937145;28;88148;-68
2021/11/03 02:17:35;;;;;;;3.10;2.40;;;6.90;99.90;6.80;99289.00;;;;4950755;28;89964;-67
2021/11/03 02:20:06;;;;;;;1.60;1.40;;;6.90;99.90;6.80;99285.00;;;;4950804;28;87685;-66
2021/11/03 02:22:39;;;;;;;2.10;1.60;;;6.90;99.90;6.80;99289.00;;;;4950517;28;87850;-67
2021/11/03 02:25:20;;;;;;;2.23;1.83;;;6.90;99.90;6.80;99305.00;;;;4934926;28;103652;-67
2021/11/03 02:27:49;;;;;;;1.80;1.70;;;6.90;99.90;6.90;99297.00;;;;4950090;28;104102;-67
2021/11/03 02:30:19;;;;;;;2.03;1.80;;;7.00;99.90;6.90;99295.00;;;;4951015;28;87793;-67
2021/11/03 02:32:52;;;;;;;3.87;1.77;;;7.00;99.90;6.90;99293.00;;;;4935531;28;88075;-67
2021/11/03 02:35:18;;;;;;;1.77;1.53;;;7.00;99.90;6.90;99300.00;;;;4935638;28;87733;-67
2021/11/03 02:37:48;;;;;;;2.17;1.93;;;7.00;99.90;6.90;99297.00;;;;4934900;28;115817;-67
2021/11/03 02:40:35;;;;;;;3.23;2.13;;;7.10;99.90;6.90;99296.00;;;;4935689;28;88524;-67
2021/11/03 02:43:12;;;;;;;5.13;1.57;;;7.00;99.90;6.90;99284.00;;;;4950928;28;92600;-66
2021/11/03 02:46:01;;;;;;;2.33;1.47;;;7.00;99.90;6.80;99289.00;;;;4933313;28;87868;-66
2021/11/03 02:48:32;;;;;;;3.77;2.10;;;7.00;99.90;6.90;99286.00;;;;4935353;28;88725;-66
2021/11/03 02:51:13;;;;;;;2.53;1.90;;;7.00;99.90;6.90;99278.00;;;;4934904;28;88697;-66
2021/11/03 02:53:49;;;;;;;2.17;1.70;;;7.00;99.90;6.90;99283.00;;;;4916899;28;91416;-67
2021/11/03 02:56:23;;;;;;;1.40;1.30;;;7.00;99.90;6.90;99286.00;;;;4935666;28;87869;-66
2021/11/03 02:58:49;;;;;;;2.10;1.90;;;7.00;99.90;6.90;99283.00;;;;4935161;28;88178;-67
2021/11/03 03:01:35;;;;;;;3.03;1.77;;;7.00;99.90;7.00;99290.00;;;;4934922;28;87856;-67
2021/11/03 03:04:05;;;;;;;4.00;1.57;;;7.20;99.90;7.00;99280.00;;;;4950826;28;87815;-67
2021/11/03 03:06:31;;;;;;;2.73;1.87;;;7.10;99.90;7.00;99285.00;;;;4935840;28;91542;-66
2021/11/03 03:08:59;;;;;;;3.10;1.77;;;7.10;99.90;6.90;99270.00;;;;4950292;28;87933;-66
2021/11/03 03:11:28;;;;;;;4.00;1.47;;;7.00;99.90;6.80;99266.00;;;;4928239;28;87845;-66
2021/11/03 03:13:53;;;;;;;3.00;1.87;;;7.00;99.90;6.80;99265.00;;;;4935691;28;102061;-66
2021/11/03 03:16:21;;;;;;;1.83;1.53;;;7.30;99.90;6.70;99273.00;;;;4933739;28;107794;-67
2021/11/03 03:18:48;;;;;;;2.90;1.60;;;6.80;99.90;6.60;99270.00;;;;4935306;28;89123;-67
2021/11/03 03:21:17;;;;;;;1.70;1.60;;;6.70;99.90;6.50;99277.00;;;;4935962;28;88000;-66
2021/11/03 03:23:43;;;;;;;2.10;1.87;;;6.70;99.90;6.40;99286.00;;;;4933353;28;87610;-68
2021/11/03 03:26:12;;;;;;;1.83;1.60;;;6.60;99.90;6.40;99288.00;;;;4935050;28;108318;-65
2021/11/03 03:28:39;;;;;;;2.67;1.93;;;6.50;99.90;6.30;99282.00;;;;4934936;28;88643;-67
2021/11/03 03:31:08;;;;;;;2.97;1.93;;;6.50;99.90;6.20;99275.00;;;;4934752;28;88845;-66
2021/11/03 03:33:34;;;;;;;7.73;2.17;;;6.40;99.90;6.10;99282.00;;;;4934546;28;101020;-66
2021/11/03 03:36:00;;;;;;;1.70;1.60;;;6.30;99.90;6.10;99283.00;;;;4935036;28;90316;-67
2021/11/03 03:38:26;;;;;;;1.93;1.37;;;6.30;99.90;6.00;99286.00;;;;4935165;28;88301;-66
2021/11/03 03:40:51;;;;;;;2.97;1.60;;;6.20;99.90;6.00;99294.00;;;;4933526;28;117790;-67
2021/11/03 03:43:17;;;;;;;1.73;1.60;;;6.10;99.90;5.90;99292.00;;;;4934442;28;109320;-67
2021/11/03 03:45:43;;;;;;;3.07;1.57;;;6.10;99.90;5.90;99297.00;;;;4935984;28;108145;-66
2021/11/03 03:48:09;;;;;;;3.00;1.97;;;6.00;99.90;5.80;99304.00;;;;4938133;28;87798;-66
2021/11/03 03:50:36;;;;;;;2.50;2.23;;;6.00;99.90;5.70;99305.00;;;;4936761;28;117393;-67
2021/11/03 03:53:02;;;;;;;1.80;1.70;;;5.90;99.90;5.60;99310.00;;;;4938636;28;87984;-67
2021/11/03 03:55:28;;;;;;;2.37;1.77;;;5.80;99.90;5.50;99296.00;;;;4938189;28;87738;-66
2021/11/03 03:57:55;;;;;;;2.13;1.80;;;5.70;99.90;5.40;99288.00;;;;4938033;28;105186;-66
2021/11/03 04:00:22;;;;;;;1.57;1.37;;;5.60;99.90;5.30;99293.00;;;;4938215;28;87765;-66
2021/11/03 04:02:50;;;;;;;1.87;1.30;;;5.60;99.90;5.30;99304.00;;;;4937396;28;101945;-66
2021/11/03 04:05:17;;;;;;;1.60;1.40;;;5.50;99.90;5.20;99307.00;;;;4937995;28;88682;-67
2021/11/03 04:07:42;;;;;;;1.97;1.77;;;5.40;99.90;5.10;99300.00;;;;4936905;28;117362;-67
2021/11/03 04:10:09;;;;;;;2.03;1.70;;;5.80;99.90;5.00;99298.00;;;;4936910;28;116451;-67
2021/11/03 04:12:35;;;;;;;2.23;1.73;;;5.50;99.90;4.90;99295.00;;;;4953781;28;87995;-67
2021/11/03 04:15:01;;;;;;;1.53;1.33;;;5.70;99.90;4.90;99294.00;;;;4937964;28;87665;-67
2021/11/03 04:17:27;;;;;;;1.57;1.47;;;5.10;99.90;4.80;99305.00;;;;4937971;28;95305;-67
2021/11/03 04:19:52;;;;;;;2.20;1.87;;;5.40;99.90;4.70;99300.00;;;;4934915;28;116655;-67
2021/11/03 04:22:18;;;;;;;2.23;1.37;;;5.30;99.90;4.60;99306.00;;;;4937402;28;94616;-67
2021/11/03 04:24:44;;;;;;;1.87;1.47;;;5.40;99.90;4.60;99305.00;;;;4937607;28;107742;-67
2021/11/03 04:27:11;;;;;;;2.17;1.67;;;4.80;99.90;4.50;99315.00;;;;4937894;28;90688;-67
2021/11/03 04:29:37;;;;;;;1.93;1.47;;;4.80;99.90;4.50;99319.00;;;;4934676;28;89247;-67
2021/11/03 04:32:04;;;;;;;4.83;1.90;;;4.70;99.90;4.40;99316.00;;;;4951666;28;109918;-67
2021/11/03 04:34:29;;;;;;;3.13;1.80;;;4.60;99.90;4.40;99319.00;;;;4937511;28;87901;-67
2021/11/03 04:36:55;;;;;;;2.50;1.77;;;4.60;99.90;4.30;99316.00;;;;4936189;28;118131;-67
2021/11/03 04:39:21;;;;;;;2.20;1.73;;;4.60;99.90;4.30;99318.00;;;;4937488;28;94206;-67
2021/11/03 04:41:47;;;;;;;2.00;1.60;;;4.50;99.90;4.30;99320.00;;;;4936331;28;110357;-67
2021/11/03 04:44:13;;;;;;;2.27;1.93;;;5.00;99.90;4.20;99326.00;;;;4938132;28;87992;-67
2021/11/03 04:46:39;;;;;;;2.20;1.60;;;4.80;99.90;4.20;99324.00;;;;4936673;28;115546;-67
2021/11/03 04:49:06;;;;;;;2.00;1.77;;;4.60;99.90;4.10;99321.00;;;;4951012;28;116496;-67
2021/11/03 04:51:32;;;;;;;2.27;1.83;;;4.30;99.90;4.10;99324.00;;;;4937772;28;87768;-68
2021/11/03 04:53:59;;;;;;;2.83;1.70;;;4.30;99.90;4.00;99327.00;;;;4936996;28;88677;-68
2021/11/03 04:56:25;;;;;;;1.70;1.60;;;4.20;99.90;4.00;99329.00;;;;4937200;28;88419;-68
2021/11/03 04:58:52;;;;;;;3.40;2.00;;;4.20;99.90;4.00;99310.00;;;;4936592;28;89007;-66
2021/11/03 05:01:21;;;;;;;2.50;1.70;;;4.80;99.90;3.90;99326.00;;;;4936968;28;87624;-69
2021/11/03 05:03:48;;;;;;;2.03;1.83;;;4.10;99.90;3.90;99316.00;;;;4937202;28;87710;-67
2021/11/03 05:06:19;;;;;;;1.97;1.43;;;4.00;99.90;3.80;99317.00;;;;4936364;28;107592;-67
2021/11/03 05:08:45;;;;;;;2.93;1.60;;;4.00;99.90;3.80;99323.00;;;;4936772;28;87793;-67
2021/11/03 05:11:10;;;;;;;1.50;1.30;;;3.20;99.90;3.70;99320.00;;;;4936581;28;111084;-67
2021/11/03 05:13:36;;;;;;;2.30;1.37;;;4.10;99.90;3.70;99320.00;;;;4936459;28;107458;-67
2021/11/03 05:16:03;;;;;;;3.90;2.10;;;3.90;99.90;3.60;99317.00;;;;4935471;28;118143;-67
2021/11/03 05:18:28;;;;;;;1.67;1.37;;;3.90;99.90;3.60;99319.00;;;;4936457;28;88882;-67
2021/11/03 05:20:54;;;;;;;1.93;1.40;;;4.50;99.90;3.60;99321.00;;;;4935922;28;110479;-67
2021/11/03 05:23:24;;;;;;;2.67;1.87;;;4.40;99.90;3.60;99318.00;;;;4936387;28;108945;-67
2021/11/03 05:25:51;;;;;;;1.63;1.47;;;3.80;99.90;3.60;99324.00;;;;4936961;28;88609;-66
2021/11/03 05:28:19;;;;;;;3.40;1.57;;;3.70;99.90;3.50;99319.00;;;;4936042;28;88686;-67
2021/11/03 05:30:45;;;;;;;2.80;1.77;;;3.70;99.90;3.50;99313.00;;;;4936924;28;88083;-67
2021/11/03 05:33:10;;;;;;;1.70;1.33;;;3.70;99.90;3.50;99317.00;;;;4936370;28;109179;-66
2021/11/03 05:35:37;;;;;;;2.90;1.70;;;3.70;99.90;3.50;99322.00;;;;4935723;28;117632;-67
2021/11/03 05:38:03;;;;;;;2.43;1.90;;;4.30;99.90;3.40;99326.00;;;;4934504;28;89510;-66
2021/11/03 05:40:29;;;;;;;2.80;1.90;;;3.60;99.90;3.40;99334.00;;;;4936210;28;88480;-66
2021/11/03 05:42:56;;;;;;;1.70;1.53;;;3.70;99.90;3.40;99326.00;;;;4951157;28;88916;-67
2021/11/03 05:45:22;;;;;;;3.77;2.27;;;3.70;99.90;3.40;99333.00;;;;4936293;28;88102;-67
2021/11/03 05:47:48;;;;;;;2.93;2.10;;;3.60;99.90;3.50;99329.00;;;;4936533;28;87806;-67
2021/11/03 05:50:22;;;;;;;2.30;1.70;;;3.70;99.90;3.60;99339.00;;;;4934835;28;90037;-67
2021/11/03 05:52:48;;;;;;;1.53;1.23;;;4.40;99.90;3.60;99330.00;;;;4931925;28;88089;-67
2021/11/03 05:55:14;;;;;;;3.63;2.33;;;3.80;99.90;3.70;99344.00;;;;4936184;28;88052;-67
2021/11/03 05:57:40;;;;;;;3.23;2.30;;;4.00;99.90;3.80;99333.00;;;;4935470;28;103299;-67
2021/11/03 06:00:14;;;;;;;3.63;2.00;;;4.60;99.90;3.90;99340.00;;;;4951224;28;87163;-67
2021/11/03 06:02:40;;;;;;;4.43;3.17;;;4.10;99.90;4.00;99337.00;;;;4936567;28;87649;-67
2021/11/03 06:05:07;;;;;;;3.60;2.70;;;4.20;99.90;4.10;99342.00;;;;4936825;28;88239;-68
2021/11/03 06:07:32;;;;;;;2.70;2.40;;;4.30;99.90;4.20;99346.00;;;;4935535;28;88744;-67
2021/11/03 06:10:01;;;;;;;3.10;2.70;;;4.30;99.90;4.30;99347.00;;;;4935253;28;109680;-67
2021/11/03 06:12:27;;;;;;;3.03;2.13;;;4.40;99.90;4.40;99350.00;;;;4936312;28;87966;-67
2021/11/03 06:14:53;;;;;;;2.50;2.20;;;4.70;99.90;4.40;99344.00;;;;4935164;28;117711;-67
2021/11/03 06:17:18;;;;;;;6.97;2.63;;;4.60;99.90;4.50;99351.00;;;;4935247;28;118706;-66
2021/11/03 06:19:44;;;;;;;2.73;2.33;;;5.20;99.90;4.60;99347.00;;;;4935188;28;111360;-69
2021/11/03 06:22:10;;;;;;;3.40;2.83;;;4.70;99.90;4.70;99356.00;;;;4935343;28;108473;-67
2021/11/03 06:24:38;;;;;;;3.00;2.53;;;4.80;99.90;4.80;99347.00;;;;4935415;28;117187;-67
2021/11/03 06:27:04;;;;;;;4.53;2.57;;;4.90;99.90;4.80;99348.00;;;;4935861;28;87729;-67
2021/11/03 06:29:31;;;;;;;4.17;2.50;;;5.00;99.90;4.90;99354.00;;;;4936208;28;87720;-67
2021/11/03 06:31:56;;;;;;;5.23;2.97;;;5.00;99.90;5.00;99364.00;;;;4935244;28;88834;-67
2021/11/03 06:34:22;;;;;;;4.70;3.00;;;5.10;99.90;5.10;99355.00;;;;4935250;28;117234;-68
2021/11/03 06:36:48;;;;;;;3.80;2.53;;;5.20;99.90;5.10;99371.00;;;;4949663;28;104181;-67
2021/11/03 06:39:14;;;;;;;5.67;4.43;;;5.30;99.90;5.20;99372.00;;;;4935413;28;109608;-67
2021/11/03 06:41:40;;;;;;;5.53;3.73;;;5.50;99.90;5.30;99362.00;;;;4935391;28;88906;-67
2021/11/03 06:44:06;;;;;;;4.33;3.50;;;5.40;99.90;5.40;99372.00;;;;4933028;28;90986;-67
2021/11/03 06:46:32;;;;;;;3.20;2.90;;;5.50;99.90;5.40;99376.00;;;;4935079;28;88381;-67
2021/11/03 06:48:57;;;;;;;8.30;4.03;;;5.60;99.90;5.50;99371.00;;;;4935647;28;110554;-67
2021/11/03 06:51:23;;;;;;;8.17;3.70;;;5.60;99.90;5.60;99382.00;;;;4934972;28;107764;-67
2021/11/03 06:53:49;;;;;;;7.10;4.13;;;5.60;99.90;5.70;99376.00;;;;4933299;28;116059;-67
2021/11/03 06:56:15;;;;;;;4.63;2.90;;;5.70;99.90;5.70;99389.00;;;;4932680;28;112314;-67
2021/11/03 06:58:41;;;;;;;4.87;3.53;;;5.80;99.90;5.80;99387.00;;;;4936410;28;87756;-67
2021/11/03 07:01:10;;;;;;;6.30;4.30;;;5.90;99.90;5.80;99393.00;;;;4935262;28;108256;-67
2021/11/03 07:03:37;;;;;;;4.77;3.73;;;5.90;99.90;5.90;99390.00;;;;4933594;28;89477;-67
2021/11/03 07:06:03;;;;;;;3.80;2.90;;;6.00;99.90;6.00;99402.00;;;;4935607;28;87699;-67
2021/11/03 07:08:29;;;;;;;5.40;3.83;;;6.10;99.90;6.00;99401.00;;;;4934692;28;110673;-67
2021/11/03 07:10:57;;;;;;;4.90;3.23;;;6.10;99.90;6.10;99401.00;;;;4950251;28;87718;-67
2021/11/03 07:13:25;;;;;;;6.80;4.07;;;6.20;99.90;6.20;99408.00;;;;4936276;28;87430;-66
2021/11/03 07:15:52;;;;;;;7.80;3.87;;;6.30;99.90;6.30;99399.00;;;;4935607;28;87856;-69
2021/11/03 07:18:20;;;;;;;7.23;4.37;;;6.30;99.90;6.30;99410.00;;;;4950240;28;88032;-68
2021/11/03 07:20:46;;;;;;;7.73;4.23;;;6.40;99.90;6.40;99413.00;;;;4936305;28;88938;-66
2021/11/03 07:23:15;;;;;;;7.10;3.83;;;6.40;99.90;6.40;99414.00;;;;4938745;28;88749;-65
2021/11/03 07:25:42;;;;;;;8.40;4.37;;;6.50;99.90;6.50;99414.00;;;;4938597;28;88325;-66
2021/11/03 07:28:09;;;;;;;6.80;5.23;;;6.60;99.90;6.60;99419.00;;;;4939597;28;87816;-67
2021/11/03 07:30:37;;;;;;;7.40;4.63;;;6.70;99.90;6.70;99418.00;;;;4937928;28;90843;-67
2021/11/03 07:33:05;;;;;;;8.50;4.73;;;6.70;99.90;6.70;99421.00;;;;4945684;28;87820;-67
2021/11/03 07:35:32;;;;;;;7.33;4.77;;;6.80;99.90;6.80;99422.00;;;;4938866;28;88841;-67
2021/11/03 07:38:00;;;;;;;5.37;4.20;;;6.90;99.90;6.90;99426.00;;;;4939400;28;87170;-67
2021/11/03 07:40:32;;;;;;;6.67;4.30;;;7.00;99.90;6.90;99420.00;;;;4937563;28;88937;-66
2021/11/03 07:42:59;;;;;;;7.73;4.60;;;7.00;99.90;7.00;99413.00;;;;4952998;28;88612;-67
2021/11/03 07:45:28;;;;;;;7.43;5.33;;;7.00;99.90;7.00;99417.00;;;;4937847;28;88684;-66
2021/11/03 07:47:55;;;;;;;7.03;4.50;;;7.10;99.90;7.10;99422.00;;;;4937959;28;94099;-66
2021/11/03 07:50:25;;;;;;;5.20;4.60;;;7.10;99.90;7.10;99426.00;;;;4938441;28;88884;-67
2021/11/03 07:52:50;;;;;;;5.27;4.13;;;7.20;99.90;7.20;99411.00;;;;4938791;28;88517;-69
2021/11/03 07:55:16;;;;;;;6.03;4.33;;;7.80;99.90;7.30;99419.00;;;;4938333;28;87724;-67
2021/11/03 07:57:42;;;;;;;5.70;4.43;;;7.30;99.90;7.30;99410.00;;;;4938094;28;94536;-66
2021/11/03 08:00:19;;;;;;;6.30;5.07;;;7.40;99.90;7.30;99410.00;;;;4938689;28;87685;-67
2021/11/03 08:02:45;;;;;;;7.50;5.03;;;7.40;99.90;7.40;99412.00;;;;4937131;28;87145;-67
2021/11/03 08:05:11;;;;;;;6.73;5.00;;;7.50;99.90;7.70;99421.00;;;;4937340;28;116569;-66
2021/11/03 08:07:36;;;;;;;7.73;5.53;;;7.70;99.90;8.10;99408.00;;;;4937094;28;109149;-65
2021/11/03 08:10:04;;;;;;;8.67;5.30;;;7.90;99.90;8.40;99415.00;;;;4937020;28;109308;-65
2021/11/03 08:12:30;;;;;;;8.83;4.87;;;8.30;99.90;8.70;99413.00;;;;4938332;28;88708;-65
2021/11/03 08:14:55;;;;;;;9.03;4.70;;;8.60;99.90;9.00;99402.00;;;;4937377;28;118566;-66
2021/11/03 08:17:25;;;;;;;8.00;4.23;;;8.90;99.90;9.30;99401.00;;;;4937038;28;108173;-66
2021/11/03 08:19:54;;;;;;;8.33;5.50;;;9.20;99.90;9.70;99402.00;;;;4938793;28;87799;-66
2021/11/03 08:22:24;;;;;;;8.73;5.00;;;9.50;99.90;10.00;99404.00;;;;4951838;28;89302;-67
2021/11/03 08:24:53;;;;;;;6.80;4.53;;;9.90;99.90;10.30;99403.00;;;;4938473;28;87904;-65
2021/11/03 08:27:22;;;;;;;5.47;3.77;;;10.20;99.90;10.60;99413.00;;;;4938248;28;87153;-67
2021/11/03 08:29:48;;;;;;;3.97;3.57;;;10.50;99.90;11.00;99414.00;;;;4930744;28;87687;-67
2021/11/03 08:32:19;;;;;;;6.97;3.40;;;10.70;99.90;11.10;99420.00;;;;4936534;28;88303;-67
2021/11/03 08:34:46;;;;;;;6.17;4.27;;;11.00;99.90;11.10;99416.00;;;;4952460;28;88936;-66
2021/11/03 08:37:18;;;;;;;6.87;4.10;;;11.10;99.90;11.00;99415.00;;;;4937875;28;93339;-66
2021/11/03 08:39:49;;;;;;;5.97;4.83;;;11.10;99.90;11.00;99417.00;;;;4952520;28;91113;-66
2021/11/03 08:42:16;;;;;;;7.70;3.63;;;11.00;99.90;11.20;99421.00;;;;4937476;28;89058;-66
2021/11/03 08:44:42;;;;;;;6.07;4.27;;;11.10;99.90;11.40;99425.00;;;;4937757;28;87795;-66
2021/11/03 08:47:09;;;;;;;6.97;3.47;;;11.30;99.90;11.60;99423.00;;;;4949349;28;109601;-66
2021/11/03 08:49:35;;;;;;;5.23;3.63;;;11.50;99.90;11.60;99431.00;;;;4938090;28;88787;-66
2021/11/03 08:52:04;;;;;;;6.70;3.60;;;11.60;99.90;11.80;99429.00;;;;4937628;28;87411;-66
2021/11/03 08:54:31;;;;;;;5.43;2.97;;;11.70;99.90;12.00;99421.00;;;;4937025;28;88190;-66
2021/11/03 08:56:58;;;;;;;4.57;3.43;;;11.90;99.90;12.30;99426.00;;;;4937351;28;87632;-66
2021/11/03 08:59:24;;;;;;;7.20;3.60;;;12.10;99.90;12.60;99424.00;;;;4937664;28;88708;-67
2021/11/03 09:01:50;;;;;;;4.00;3.27;;;12.40;99.90;12.80;99421.00;;;;4936537;28;103746;-66
2021/11/03 09:04:16;;;;;;;3.97;2.60;;;12.70;99.90;13.10;99411.00;;;;4937227;28;91666;-66
2021/11/03 09:06:41;;;;;;;5.30;2.77;;;12.90;99.90;13.30;99411.00;;;;4937427;28;88109;-65
2021/11/03 09:09:07;;;;;;;5.23;2.87;;;13.10;99.90;13.60;99417.00;;;;4937939;28;87706;-65
2021/11/03 09:11:33;;;;;;;3.93;2.57;;;13.40;99.90;13.80;99415.00;;;;4937076;28;97198;-64
2021/11/03 09:14:00;;;;;;;5.40;2.17;;;13.50;99.90;13.90;99413.00;;;;4937358;28;93452;-66
2021/11/03 09:16:27;;;;;;;3.93;2.33;;;13.70;99.50;14.00;99409.00;;;;4952269;28;86957;-64
2021/11/03 09:18:53;;;;;;;3.53;2.57;;;13.80;99.00;14.10;99415.00;;;;4938205;28;88125;-65
2021/11/03 09:21:21;;;;;;;3.23;1.73;;;13.90;96.30;14.20;99407.00;;;;4936946;28;88125;-65
2021/11/03 09:23:47;;;;;;;4.10;2.60;;;14.00;95.90;14.40;99401.00;;;;4937017;28;88506;-65
2021/11/03 09:26:16;;;;;;;2.50;2.30;;;14.20;96.60;14.70;99403.00;;;;4937675;28;87510;-65
2021/11/03 09:28:44;;;;;;;2.00;1.73;;;14.40;96.70;15.00;99400.00;;;;4937405;28;88010;-65
2021/11/03 09:31:10;;;;;;;3.13;1.93;;;14.70;94.70;15.10;99399.00;;;;4937486;28;88348;-65
2021/11/03 09:33:37;;;;;;;1.73;1.50;;;14.90;91.70;15.10;99407.00;;;;4936965;28;87967;-65
2021/11/03 09:36:06;;;;;;;1.47;1.37;;;14.90;91.50;15.20;99407.00;;;;4937364;28;87684;-65
2021/11/03 09:38:33;;;;;;;2.17;1.70;;;15.00;89.20;15.20;99397.00;;;;4936941;28;88062;-65
2021/11/03 09:41:12;;;;;;;2.13;1.53;;;15.00;88.60;15.30;99397.00;;;;4936454;28;87294;-66
2021/11/03 09:43:43;;;;;;;2.47;1.90;;;15.10;88.30;15.50;99406.00;;;;4935952;28;87847;-65
2021/11/03 09:46:40;;;;;;;1.83;1.53;;;15.30;87.10;15.80;99393.00;;;;4933419;28;101379;-65
2021/11/03 09:49:17;;;;;;;1.93;1.70;;;15.50;88.00;16.10;99392.00;;;;4935943;28;88760;-64
2021/11/03 09:51:48;;;;;;;1.75;1.17;;;15.80;87.30;16.40;99390.00;;;;4936080;28;87867;-64
2021/11/03 09:54:20;;;;;;;2.78;1.67;;;16.10;86.10;16.70;99391.00;;;;4934578;28;88012;-67
2021/11/03 09:56:56;;;;;;;3.72;1.23;;;16.30;84.80;16.80;99388.00;;;;4951011;28;88396;-65
2021/11/03 09:59:39;;;;;;;3.00;1.75;;;16.60;79.70;17.00;99400.00;;;;4934584;28;87765;-65
2021/11/03 10:02:48;;;;;;;1.50;1.40;;;16.70;77.50;17.00;99398.00;;;;4950797;28;87843;-65
2021/11/03 10:05:37;;;;;;;0.77;0.77;;;16.80;76.20;17.30;99380.00;;;;4951493;28;88198;-65
2021/11/03 10:08:12;;;;;;;1.38;0.95;;;17.00;76.00;17.60;99391.00;;;;4951638;28;86964;-68
2021/11/03 10:10:50;;;;;;;1.05;0.95;;;17.20;74.80;17.80;99393.00;;;;4951556;28;87849;-67
2021/11/03 10:13:31;;;;;;;0.93;0.88;;;17.40;73.60;18.00;99395.00;;;;4936547;28;88819;-67
2021/11/03 10:16:15;;;;;;;0.47;0.47;;;17.60;71.80;18.30;99387.00;;;;4935727;28;104079;-68
2021/11/03 10:19:08;;;;;;;1.58;0.98;;;17.90;71.10;18.70;99398.00;;;;4936444;28;87523;-67
2021/11/03 10:21:58;;;;;;;0.82;0.73;;;18.30;70.70;18.90;99392.00;;;;4936051;28;87757;-68
2021/11/03 10:24:38;;;;;;;1.13;0.50;;;18.50;65.90;18.80;99387.00;;;;4950645;28;87879;-69
2021/11/03 10:27:04;;;;;;;0.40;0.40;;;18.50;61.20;18.80;99389.00;;;;4933802;28;87778;-67
2021/11/03 10:29:39;;;;;;;0.85;0.80;;;18.50;61.70;18.70;99395.00;;;;4936196;28;87790;-69
2021/11/03 10:32:07;;;;;;;1.05;0.95;;;18.50;60.20;18.70;99398.00;;;;4935751;28;87746;-67
2021/11/03 10:34:33;;;;;;;0.90;0.90;;;18.40;59.30;18.70;99392.00;;;;4935530;28;103792;-68
2021/11/03 10:37:17;;;;;;;0.35;0.35;;;18.40;59.00;18.60;99387.00;;;;4936127;28;95361;-69
2021/11/03 10:39:50;;;;;;;1.30;0.70;;;18.30;57.40;18.70;99388.00;;;;4935782;28;87451;-69
2021/11/03 10:42:24;;;;;;;1.67;0.70;;;18.30;59.00;18.90;99390.00;;;;4935811;28;88553;-69
2021/11/03 10:45:26;;;;;;;0.63;0.63;;;18.50;58.50;19.00;99382.00;;;;4936000;28;87924;-67
2021/11/03 10:48:24;;;;;;;1.05;0.68;;;18.70;57.80;19.10;99377.00;;;;4936791;28;87771;-67
2021/11/03 10:50:55;;;;;;;0.47;0.47;;;18.70;55.60;19.20;99379.00;;;;4931824;28;88885;-67
2021/11/03 10:53:44;;;;;;;0.50;0.50;;;18.80;55.80;19.10;99372.00;;;;4935892;28;87769;-68
2021/11/03 10:56:17;;;;;;;1.05;0.52;;;18.80;55.40;19.30;99367.00;;;;4949948;28;88150;-68
2021/11/03 10:58:49;;;;;;;0.63;0.47;;;18.90;57.20;19.80;99374.00;;;;4935269;28;101625;-68
2021/11/03 11:01:48;;;;;;;0.98;0.65;;;19.20;56.40;20.00;99369.00;;;;4936267;28;86887;-67
2021/11/03 11:04:34;;;;;;;0.98;0.60;;;19.50;55.10;20.10;99366.00;;;;4923015;28;87933;-68
2021/11/03 11:07:36;;;;;;;0.57;0.45;;;19.70;54.70;20.20;99366.00;;;;4949668;28;88234;-68
2021/11/03 11:10:28;;;;;;;1.15;0.70;;;19.80;54.40;20.30;99367.00;;;;4950405;28;89083;-69
2021/11/03 11:13:01;;;;;;;1.17;0.68;;;19.80;53.80;20.20;99370.00;;;;4935670;28;89702;-68
2021/11/03 11:15:48;;;;;;;1.85;0.60;;;19.90;52.10;19.90;99363.00;;;;4950514;28;88195;-68